Terminal Aerodrome Forecast
Issued by NWS Lake Charles, LA

Home | Current Version | Previous Version | Text Only | Print | Product List | Glossary On
Versions: 1 2 3 4 5 6 7 8 9 10 11 12 13 14 15 16 17 18 19 20 21 22 23 24 25 26 27 28
000
FTUS44 KLCH 241137
TAFBPT
TAF
KBPT 241137Z 2412/2512 16012KT P6SM VCSH SCT025
     FM241300 17015G22KT P6SM VCSH SCT025 BKN035
     FM241500 18019G27KT 5SM -SHRA SCT030 BKN040
      TEMPO 2415/2418 VRB20G30KT 1SM +TSRA BKN015CB OVC030
     FM242100 17012G18KT P6SM VCSH BKN045 OVC100
     FM250100 16010KT P6SM SCT120 BKN200=

USA.gov is the U.S. government's official web portal to all federal, state and local government web resources and services.